createdAt,value
2018-09-17T00:00:19.235Z,52.54
2018-09-17T00:02:47.520Z,51.01
2018-09-17T00:05:16.005Z,51.69
2018-09-17T00:07:45.958Z,52.40
2018-09-17T00:10:14.521Z,52.77
2018-09-17T00:12:42.939Z,52.97
2018-09-17T00:15:11.882Z,53.43
2018-09-17T00:17:40.421Z,51.97
2018-09-17T00:20:08.829Z,53.84
2018-09-17T00:22:37.638Z,53.66
2018-09-17T00:25:05.778Z,54.10
2018-09-17T00:27:34.243Z,53.94
2018-09-17T00:30:02.862Z,52.74
2018-09-17T00:32:31.747Z,53.62
2018-09-17T00:35:01.671Z,54.40
2018-09-17T00:37:30.212Z,54.51
2018-09-17T00:39:58.591Z,54.58
2018-09-17T00:42:26.661Z,54.39
2018-09-17T00:44:55.703Z,54.90
2018-09-17T00:47:24.100Z,55.98
2018-09-17T00:49:53.902Z,55.73
2018-09-17T00:57:57.746Z,55.38
2018-09-17T01:00:27.126Z,55.62
2018-09-17T01:02:55.316Z,55.83
2018-09-17T01:05:23.503Z,55.04
2018-09-17T01:07:52.670Z,55.03
2018-09-17T01:15:18.850Z,56.07
2018-09-17T01:17:47.509Z,56.37
2018-09-17T01:20:16.771Z,55.60
2018-09-17T01:22:45.112Z,54.30
2018-09-17T01:25:14.192Z,55.17
2018-09-17T01:27:42.315Z,56.36
2018-09-17T01:30:10.866Z,57.40
2018-09-17T01:32:39.095Z,56.92
2018-09-17T01:35:07.207Z,55.77
2018-09-17T01:37:35.942Z,55.87
2018-09-17T01:40:04.308Z,57.43
2018-09-17T01:42:32.659Z,55.67
2018-09-17T01:45:01.835Z,57.62
2018-09-17T01:47:31.309Z,57.05
2018-09-17T01:49:59.663Z,56.87
2018-09-17T01:52:27.766Z,57.13
2018-09-17T01:55:00.585Z,55.49
2018-09-17T01:57:28.714Z,56.06
2018-09-17T01:59:58.679Z,55.74
2018-09-17T02:02:27.249Z,56.23
2018-09-17T02:04:55.689Z,55.87
2018-09-17T02:07:28.536Z,57.54
2018-09-17T02:09:56.793Z,57.76
2018-09-17T02:12:25.732Z,58.81
2018-09-17T02:14:53.990Z,57.86
2018-09-17T02:17:24.291Z,58.00
2018-09-17T02:19:54.486Z,58.30
2018-09-17T02:22:22.827Z,58.44
2018-09-17T02:24:53.206Z,59.27
2018-09-17T02:27:25.323Z,59.50
2018-09-17T02:29:54.220Z,59.83
2018-09-17T02:32:24.613Z,59.26
2018-09-17T02:34:52.689Z,59.76
2018-09-17T02:37:23.119Z,60.10
2018-09-17T02:39:54.010Z,59.86
2018-09-17T02:42:23.179Z,59.49
2018-09-17T02:44:51.839Z,60.79
2018-09-17T02:47:20.491Z,60.03
2018-09-17T02:49:49.193Z,61.07
2018-09-17T02:52:17.345Z,60.50
2018-09-17T02:54:45.554Z,61.22
2018-09-17T02:57:13.699Z,61.28
2018-09-17T02:59:41.954Z,60.53
2018-09-17T03:02:10.066Z,60.54
2018-09-17T03:04:38.151Z,61.42
2018-09-17T03:07:06.284Z,61.10
2018-09-17T03:09:34.462Z,60.52
2018-09-17T03:12:04.046Z,61.11
2018-09-17T03:14:32.214Z,62.36
2018-09-17T03:17:09.523Z,61.68
2018-09-17T03:19:37.611Z,62.03
2018-09-17T03:22:07.331Z,62.81
2018-09-17T03:24:37.052Z,61.32
2018-09-17T03:27:08.753Z,61.24
2018-09-17T03:29:37.025Z,61.54
2018-09-17T03:32:06.632Z,61.67
2018-09-17T03:34:34.675Z,60.08
2018-09-17T03:37:02.734Z,61.67
2018-09-17T03:39:30.845Z,61.90
2018-09-17T03:41:59.459Z,61.91
2018-09-17T03:44:27.693Z,63.10
2018-09-17T03:46:55.759Z,61.84
2018-09-17T03:49:24.416Z,61.96
2018-09-17T03:51:52.700Z,62.19
2018-09-17T03:54:20.782Z,62.21
2018-09-17T03:56:48.974Z,62.45
2018-09-17T03:59:18.536Z,62.35
2018-09-17T04:01:48.166Z,61.90
2018-09-17T04:04:17.819Z,63.42
2018-09-17T04:06:45.897Z,64.24
2018-09-17T04:09:18.546Z,62.87
2018-09-17T04:11:46.651Z,63.65
2018-09-17T04:14:14.731Z,63.32
2018-09-17T04:16:44.829Z,63.43
2018-09-17T04:19:12.994Z,62.43
2018-09-17T04:21:41.455Z,63.82
2018-09-17T04:24:09.545Z,63.06
2018-09-17T04:26:43.013Z,65.75
2018-09-17T04:29:11.657Z,66.96
2018-09-17T04:31:40.402Z,67.73
2018-09-17T04:34:08.458Z,67.16
2018-09-17T04:36:38.055Z,66.03
2018-09-17T04:39:08.423Z,64.99
2018-09-17T04:41:37.012Z,64.58
2018-09-17T04:44:06.187Z,65.82
2018-09-17T04:46:35.851Z,67.78
2018-09-17T04:49:04.015Z,66.87
2018-09-17T04:51:32.117Z,66.58
2018-09-17T04:54:00.244Z,65.67
2018-09-17T04:56:28.341Z,66.85
2018-09-17T04:58:56.439Z,66.69
2018-09-17T05:01:24.780Z,66.96
2018-09-17T05:03:53.952Z,66.66
2018-09-17T05:06:22.604Z,65.72
2018-09-17T05:08:51.297Z,66.26
2018-09-17T05:11:20.370Z,66.67
2018-09-17T05:13:49.019Z,65.10
2018-09-17T05:16:17.146Z,65.29
2018-09-17T05:18:46.512Z,64.01
2018-09-17T05:21:15.611Z,63.18
2018-09-17T05:23:44.519Z,64.40
2018-09-17T05:26:13.687Z,64.60
2018-09-17T05:28:43.371Z,66.44
2018-09-17T05:31:11.470Z,66.42
2018-09-17T05:33:39.613Z,65.43
2018-09-17T05:36:08.407Z,65.55
2018-09-17T05:38:36.513Z,65.16
2018-09-17T05:41:04.666Z,66.13
2018-09-17T05:43:34.495Z,65.87
2018-09-17T05:46:02.843Z,66.71
2018-09-17T05:48:32.379Z,65.09
2018-09-17T05:51:01.015Z,64.54
2018-09-17T05:53:30.260Z,64.84
2018-09-17T05:55:58.376Z,64.51
2018-09-17T05:58:27.142Z,64.01
2018-09-17T06:00:55.268Z,64.38
2018-09-17T06:03:23.391Z,64.84
2018-09-17T06:05:52.998Z,64.38
2018-09-17T06:08:22.912Z,65.95
2018-09-17T06:10:52.930Z,66.05
2018-09-17T06:13:21.179Z,66.82
2018-09-17T06:15:49.328Z,65.22
2018-09-17T06:18:19.051Z,65.01
2018-09-17T06:20:47.151Z,63.77
2018-09-17T06:23:16.026Z,63.89
2018-09-17T06:25:45.417Z,63.02
2018-09-17T06:28:13.533Z,63.88
2018-09-17T06:30:41.679Z,63.12
2018-09-17T06:33:11.562Z,63.29
2018-09-17T06:35:39.881Z,63.55
2018-09-17T06:38:08.194Z,63.38
2018-09-17T06:40:37.053Z,63.03
2018-09-17T06:43:06.043Z,62.73
2018-09-17T06:45:35.257Z,62.22
2018-09-17T06:48:04.966Z,61.81
2018-09-17T06:50:36.398Z,62.57
2018-09-17T06:53:05.906Z,63.43
2018-09-17T06:55:40.540Z,63.69
2018-09-17T06:58:11.330Z,63.59
2018-09-17T07:00:39.592Z,63.64
2018-09-17T07:03:07.922Z,61.13
2018-09-17T07:05:37.619Z,60.58
2018-09-17T07:08:05.755Z,60.98
2018-09-17T07:10:34.151Z,60.75
2018-09-17T07:13:02.614Z,59.56
2018-09-17T07:15:30.731Z,59.66
2018-09-17T07:18:00.529Z,60.61
2018-09-17T07:20:28.937Z,60.56
2018-09-17T07:22:58.771Z,61.20
2018-09-17T07:25:26.839Z,60.69
2018-09-17T07:27:55.700Z,60.22
2018-09-17T07:35:24.339Z,59.03
2018-09-17T07:37:54.023Z,59.67
2018-09-17T07:40:22.759Z,59.23
2018-09-17T07:42:51.733Z,58.99
2018-09-17T07:45:21.035Z,59.00
2018-09-17T07:47:49.476Z,59.53
2018-09-17T07:50:17.587Z,59.81
2018-09-17T07:52:46.980Z,61.06
2018-09-17T07:55:25.142Z,60.76
2018-09-17T07:58:03.484Z,59.96
2018-09-17T08:00:33.426Z,60.27
2018-09-17T08:03:01.539Z,59.75
2018-09-17T08:05:29.630Z,59.51
2018-09-17T08:07:57.706Z,58.86
2018-09-17T08:10:26.629Z,58.80
2018-09-17T08:12:54.863Z,58.29
2018-09-17T08:15:25.279Z,57.86
2018-09-17T08:17:53.690Z,58.29
2018-09-17T08:20:22.566Z,57.38
2018-09-17T08:22:50.872Z,57.33
2018-09-17T08:25:19.395Z,57.07
2018-09-17T08:27:47.755Z,57.01
2018-09-17T08:30:15.974Z,55.91
2018-09-17T08:32:44.456Z,55.70
2018-09-17T08:35:13.966Z,55.40
2018-09-17T08:37:42.289Z,55.56
2018-09-17T08:40:28.348Z,55.40
2018-09-17T08:43:20.224Z,55.09
2018-09-17T08:45:48.451Z,54.94
2018-09-17T08:48:16.802Z,55.15
2018-09-17T08:50:45.275Z,54.97
2018-09-17T08:53:13.887Z,54.63
2018-09-17T08:55:44.779Z,54.38
2018-09-17T08:58:18.433Z,53.79
2018-09-17T09:00:52.871Z,53.62
2018-09-17T09:03:27.851Z,53.43
2018-09-17T09:06:01.858Z,53.53
2018-09-17T09:08:31.891Z,53.00
2018-09-17T09:11:06.349Z,52.77
2018-09-17T09:13:39.301Z,53.05
2018-09-17T09:16:11.192Z,52.31
2018-09-17T09:18:41.772Z,52.71
2018-09-17T09:21:12.101Z,52.38
2018-09-17T09:23:41.527Z,51.90
2018-09-17T09:26:13.856Z,52.16
2018-09-17T09:28:42.450Z,51.29
2018-09-17T09:31:11.682Z,51.30
2018-09-17T09:33:41.699Z,51.33
2018-09-17T09:36:10.117Z,51.55
2018-09-17T09:38:40.229Z,50.68
2018-09-17T09:41:10.317Z,50.56
2018-09-17T09:43:41.110Z,50.80
2018-09-17T09:46:11.001Z,50.64
2018-09-17T09:48:40.254Z,50.70
2018-09-17T09:51:08.526Z,50.65
2018-09-17T09:53:36.856Z,49.94
2018-09-17T09:56:05.454Z,49.23
2018-09-17T09:58:34.351Z,49.49
2018-09-17T10:01:08.261Z,49.04
2018-09-17T10:03:44.813Z,49.40
2018-09-17T10:06:16.391Z,49.04
2018-09-17T10:08:50.191Z,47.80
2018-09-17T10:11:24.337Z,48.28
2018-09-17T10:13:58.015Z,48.36
2018-09-17T10:16:26.139Z,48.01
2018-09-17T10:18:59.503Z,47.94
2018-09-17T10:21:29.241Z,47.75
2018-09-17T10:23:57.502Z,47.17
2018-09-17T10:26:25.650Z,46.34
2018-09-17T10:28:54.271Z,46.66
2018-09-17T10:31:22.372Z,46.20
2018-09-17T10:33:50.614Z,45.32
2018-09-17T10:36:19.351Z,45.07
2018-09-17T10:38:47.543Z,45.52
2018-09-17T10:41:16.299Z,44.77
2018-09-17T10:43:44.601Z,44.41
2018-09-17T10:46:13.164Z,44.09
2018-09-17T10:48:43.005Z,43.76
2018-09-17T10:51:11.175Z,43.42
2018-09-17T10:53:39.309Z,42.62
2018-09-17T10:56:08.810Z,42.78
2018-09-17T10:58:36.922Z,43.00
2018-09-17T11:01:06.580Z,42.68
2018-09-17T11:03:34.791Z,41.84
2018-09-17T11:06:03.012Z,41.88
2018-09-17T11:08:33.159Z,40.18
2018-09-17T11:11:01.307Z,38.87
2018-09-17T11:13:30.517Z,39.46
2018-09-17T11:15:58.678Z,39.19
2018-09-17T11:18:26.767Z,37.16
2018-09-17T11:20:54.866Z,37.32
2018-09-17T11:23:23.356Z,37.31
2018-09-17T11:25:51.762Z,35.87
2018-09-17T11:28:21.369Z,35.82
2018-09-17T11:30:49.634Z,35.53
2018-09-17T11:33:17.732Z,34.50
2018-09-17T11:35:45.836Z,32.23
2018-09-17T11:38:13.947Z,32.58
2018-09-17T11:40:42.160Z,32.83
2018-09-17T11:43:10.311Z,33.28
2018-09-17T11:45:38.523Z,30.10
2018-09-17T11:48:06.618Z,29.55
2018-09-17T11:50:49.277Z,29.60
2018-09-17T11:53:17.380Z,27.36
2018-09-17T11:55:45.659Z,27.81
2018-09-17T11:58:14.961Z,25.19
2018-09-17T12:00:49.641Z,25.82
2018-09-17T12:03:23.490Z,24.57
2018-09-17T12:05:57.108Z,24.74
2018-09-17T12:08:25.316Z,23.65
2018-09-17T12:10:53.767Z,23.82
2018-09-17T12:13:23.332Z,23.97
2018-09-17T12:15:53.854Z,22.52
2018-09-17T12:18:22.944Z,22.79
2018-09-17T12:20:53.051Z,22.80
2018-09-17T12:23:22.327Z,21.83
2018-09-17T12:25:51.785Z,22.91
2018-09-17T12:28:20.363Z,21.48
2018-09-17T12:30:49.109Z,21.55
2018-09-17T12:33:21.365Z,21.65
2018-09-17T12:35:49.845Z,20.35
2018-09-17T12:38:18.137Z,22.45
2018-09-17T12:40:46.565Z,21.11
2018-09-17T12:43:15.646Z,19.95
2018-09-17T12:45:47.539Z,18.81
2018-09-17T12:48:16.124Z,18.09
2018-09-17T12:50:45.285Z,17.72
2018-09-17T12:53:15.004Z,17.22
2018-09-17T12:55:48.270Z,16.64
2018-09-17T12:58:17.251Z,17.72
2018-09-17T13:00:45.718Z,16.07
2018-09-17T13:05:36.596Z,15.71
2018-09-17T13:08:05.230Z,15.07
2018-09-17T13:10:33.397Z,14.54
2018-09-17T13:13:02.043Z,15.81
2018-09-17T13:15:30.511Z,14.76
2018-09-17T13:17:59.068Z,15.08
2018-09-17T13:20:27.508Z,14.04
2018-09-17T13:22:56.140Z,14.20
2018-09-17T13:25:25.083Z,13.20
2018-09-17T13:27:53.256Z,13.78
2018-09-17T13:30:21.534Z,14.18
2018-09-17T13:32:49.741Z,11.98
2018-09-17T13:35:18.132Z,11.00
2018-09-17T13:37:46.324Z,11.49
2018-09-17T13:40:14.661Z,10.95
2018-09-17T13:42:43.078Z,10.43
2018-09-17T13:45:11.465Z,10.36
2018-09-17T13:47:43.464Z,10.08
2018-09-17T13:50:11.750Z,11.25
2018-09-17T13:52:40.066Z,12.73
2018-09-17T13:55:08.345Z,11.38
2018-09-17T13:57:36.736Z,10.93
2018-09-17T14:00:05.043Z,11.90
2018-09-17T14:02:33.491Z,11.42
2018-09-17T14:05:02.009Z,11.15
2018-09-17T14:07:30.699Z,13.07
2018-09-17T14:09:58.895Z,11.40
2018-09-17T14:12:27.371Z,11.51
2018-09-17T14:14:56.645Z,11.41
2018-09-17T14:17:25.481Z,10.14
2018-09-17T14:19:54.759Z,12.00
2018-09-17T14:22:23.846Z,12.25
2018-09-17T14:24:52.391Z,11.91
2018-09-17T14:27:20.559Z,12.25
2018-09-17T14:29:48.943Z,11.38
2018-09-17T14:32:23.264Z,11.17
2018-09-17T14:34:52.139Z,11.51
2018-09-17T14:37:20.574Z,11.33
2018-09-17T14:39:49.432Z,9.64
2018-09-17T14:42:17.886Z,9.91
2018-09-17T14:44:46.770Z,9.68
2018-09-17T14:47:16.083Z,9.78
2018-09-17T14:49:44.745Z,9.54
2018-09-17T14:52:12.896Z,9.64
2018-09-17T14:54:40.970Z,9.42
2018-09-17T14:57:09.341Z,9.08
2018-09-17T14:59:37.698Z,8.96
2018-09-17T15:02:05.928Z,8.69
2018-09-17T15:04:34.083Z,9.06
2018-09-17T15:07:02.356Z,9.46
2018-09-17T15:09:31.030Z,9.51
2018-09-17T15:11:59.295Z,9.06
2018-09-17T15:14:28.020Z,8.87
2018-09-17T15:16:56.058Z,8.94
2018-09-17T15:19:24.308Z,9.00
2018-09-17T15:21:52.736Z,8.97
2018-09-17T15:24:20.897Z,9.69
2018-09-17T15:26:49.094Z,10.57
2018-09-17T15:29:17.895Z,10.62
2018-09-17T15:31:46.003Z,11.47
2018-09-17T15:34:14.156Z,10.61
2018-09-17T15:36:42.442Z,10.67
2018-09-17T15:39:13.189Z,11.50
2018-09-17T15:41:41.990Z,11.64
2018-09-17T15:44:10.997Z,12.63
2018-09-17T15:46:39.176Z,12.57
2018-09-17T15:49:07.537Z,11.71
2018-09-17T15:51:35.751Z,12.02
2018-09-17T15:54:03.943Z,11.91
2018-09-17T15:56:32.169Z,13.01
2018-09-17T15:59:00.339Z,12.31
2018-09-17T16:01:28.656Z,13.80
2018-09-17T16:03:57.228Z,14.27
2018-09-17T16:06:26.991Z,14.31
2018-09-17T16:08:55.899Z,14.88
2018-09-17T16:11:24.207Z,15.72
2018-09-17T16:13:52.441Z,15.50
2018-09-17T16:16:21.184Z,17.20
2018-09-17T16:18:49.576Z,17.16
2018-09-17T16:21:18.472Z,17.91
2018-09-17T16:23:46.618Z,16.99
2018-09-17T16:26:15.271Z,17.98
2018-09-17T16:28:44.266Z,17.86
2018-09-17T16:31:13.492Z,19.06
2018-09-17T16:33:41.564Z,19.82
2018-09-17T16:36:09.733Z,19.15
2018-09-17T16:38:37.844Z,20.14
2018-09-17T16:41:06.602Z,20.22
2018-09-17T16:43:35.289Z,20.80
2018-09-17T16:46:04.593Z,21.57
2018-09-17T16:48:32.898Z,21.67
2018-09-17T16:51:01.072Z,21.96
2018-09-17T16:53:29.420Z,21.71
2018-09-17T16:55:58.749Z,22.52
2018-09-17T16:58:26.981Z,22.91
2018-09-17T17:05:56.166Z,23.66
2018-09-17T17:08:24.289Z,23.31
2018-09-17T17:10:52.560Z,24.03
2018-09-17T17:13:22.727Z,24.41
2018-09-17T17:15:50.922Z,24.85
2018-09-17T17:18:21.283Z,24.30
2018-09-17T17:20:49.469Z,25.23
2018-09-17T17:23:17.646Z,25.47
2018-09-17T17:25:45.897Z,25.33
2018-09-17T17:28:14.166Z,25.27
2018-09-17T17:30:42.397Z,25.90
2018-09-17T17:33:14.776Z,26.52
2018-09-17T17:35:43.247Z,26.90
2018-09-17T17:38:11.370Z,26.95
2018-09-17T17:40:39.895Z,26.78
2018-09-17T17:43:07.749Z,26.91
2018-09-17T17:45:35.886Z,27.79
2018-09-17T17:48:04.084Z,27.94
2018-09-17T17:50:32.261Z,28.50
2018-09-17T17:53:00.415Z,29.78
2018-09-17T17:55:28.678Z,29.73
2018-09-17T17:57:58.054Z,29.60
2018-09-17T18:00:26.500Z,30.40
2018-09-17T18:02:54.632Z,29.89
2018-09-17T18:05:23.032Z,29.76
2018-09-17T18:07:51.310Z,30.38
2018-09-17T18:10:19.588Z,30.70
2018-09-17T18:12:47.963Z,30.57
2018-09-17T18:15:16.195Z,31.03
2018-09-17T18:17:44.295Z,31.26
2018-09-17T18:20:12.475Z,31.37
2018-09-17T18:22:40.713Z,31.45
2018-09-17T18:25:09.250Z,31.67
2018-09-17T18:27:37.435Z,31.51
2018-09-17T18:30:07.235Z,32.44
2018-09-17T18:32:35.293Z,32.15
2018-09-17T18:35:04.799Z,32.58
2018-09-17T18:37:32.881Z,32.27
2018-09-17T18:40:01.159Z,32.71
2018-09-17T18:42:29.627Z,32.60
2018-09-17T18:44:58.239Z,33.20
2018-09-17T18:47:26.487Z,33.21
2018-09-17T18:49:55.845Z,33.19
2018-09-17T18:52:23.994Z,33.32
2018-09-17T18:54:53.599Z,33.74
2018-09-17T18:57:22.237Z,33.22
2018-09-17T18:59:50.482Z,33.38
2018-09-17T19:02:18.818Z,34.14
2018-09-17T19:04:47.035Z,33.76
2018-09-17T19:07:16.167Z,33.89
2018-09-17T19:09:47.231Z,33.76
2018-09-17T19:12:16.427Z,34.39
2018-09-17T19:14:50.738Z,33.75
2018-09-17T19:17:24.058Z,34.06
2018-09-17T19:19:53.822Z,33.85
2018-09-17T19:22:27.377Z,33.86
2018-09-17T19:24:57.202Z,34.32
2018-09-17T19:27:30.606Z,33.96
2018-09-17T19:29:59.508Z,34.74
2018-09-17T19:32:27.865Z,34.79
2018-09-17T19:34:56.623Z,34.69
2018-09-17T19:37:31.138Z,34.64
2018-09-17T19:40:04.707Z,35.26
2018-09-17T19:42:33.056Z,34.81
2018-09-17T19:45:07.014Z,34.89
2018-09-17T19:47:35.431Z,34.40
2018-09-17T19:50:07.847Z,34.56
2018-09-17T19:52:35.941Z,35.18
2018-09-17T19:55:04.130Z,35.52
2018-09-17T19:57:37.625Z,34.75
2018-09-17T20:00:07.003Z,35.17
2018-09-17T20:02:35.288Z,34.26
2018-09-17T20:05:08.814Z,34.80
2018-09-17T20:07:37.148Z,35.23
2018-09-17T20:10:05.666Z,35.50
2018-09-17T20:12:33.888Z,35.80
2018-09-17T20:15:02.185Z,35.33
2018-09-17T20:17:30.270Z,35.92
2018-09-17T20:19:58.387Z,36.54
2018-09-17T20:22:26.959Z,35.87
2018-09-17T20:24:55.409Z,36.50
2018-09-17T20:27:23.558Z,36.64
2018-09-17T20:29:52.098Z,36.82
2018-09-17T20:32:20.361Z,37.45
2018-09-17T20:34:48.517Z,36.13
2018-09-17T20:37:16.774Z,36.25
2018-09-17T20:39:45.228Z,36.43
2018-09-17T20:42:13.379Z,36.73
2018-09-17T20:44:41.752Z,36.60
2018-09-17T20:47:09.962Z,36.71
2018-09-17T20:49:38.123Z,37.18
2018-09-17T20:52:06.278Z,37.08
2018-09-17T20:54:34.831Z,37.16
2018-09-17T20:57:03.939Z,36.64
2018-09-17T20:59:32.095Z,37.33
2018-09-17T21:02:00.193Z,36.66
2018-09-17T21:04:29.460Z,37.68
2018-09-17T21:06:57.699Z,37.86
2018-09-17T21:09:25.796Z,37.56
2018-09-17T21:11:53.919Z,38.22
2018-09-17T21:14:22.238Z,38.04
2018-09-17T21:16:50.608Z,37.23
2018-09-17T21:19:18.804Z,37.93
2018-09-17T21:21:46.834Z,37.41
2018-09-17T21:24:14.927Z,37.69
2018-09-17T21:26:43.089Z,37.81
2018-09-17T21:29:11.237Z,38.54
2018-09-17T21:31:39.627Z,38.02
2018-09-17T21:34:07.764Z,38.06
2018-09-17T21:36:35.891Z,37.92
2018-09-17T21:39:06.465Z,37.85
2018-09-17T21:41:34.651Z,38.40
2018-09-17T21:44:02.978Z,37.84
2018-09-17T21:46:31.186Z,38.48
2018-09-17T21:49:00.539Z,38.08
2018-09-17T21:51:28.742Z,38.34
2018-09-17T21:53:57.178Z,38.25
2018-09-17T21:56:25.423Z,38.94
2018-09-17T21:58:53.628Z,38.72
2018-09-17T22:01:21.823Z,39.33
2018-09-17T22:03:50.792Z,39.82
2018-09-17T22:06:18.906Z,39.19
2018-09-17T22:08:47.046Z,39.00
2018-09-17T22:11:15.193Z,39.60
2018-09-17T22:13:50.831Z,40.16
2018-09-17T22:16:19.146Z,39.01
2018-09-17T22:18:47.429Z,39.53
2018-09-17T22:21:15.648Z,39.41
2018-09-17T22:23:43.776Z,39.91
2018-09-17T22:26:11.922Z,40.32
2018-09-17T22:28:40.018Z,39.99
2018-09-17T22:31:08.178Z,40.47
2018-09-17T22:33:36.437Z,40.55
2018-09-17T22:36:04.646Z,39.82
2018-09-17T22:38:32.930Z,39.74
2018-09-17T22:41:01.231Z,40.13
2018-09-17T22:43:29.517Z,40.45
2018-09-17T22:45:57.691Z,40.04
2018-09-17T22:48:25.968Z,41.44
2018-09-17T22:50:55.707Z,41.37
2018-09-17T22:53:23.878Z,41.11
2018-09-17T22:55:52.000Z,40.71
2018-09-17T22:58:20.392Z,40.98
2018-09-17T23:00:49.744Z,40.80
2018-09-17T23:03:17.863Z,41.82
2018-09-17T23:05:45.912Z,41.79
2018-09-17T23:08:14.020Z,41.21
2018-09-17T23:10:42.738Z,41.22
2018-09-17T23:13:10.871Z,41.37
2018-09-17T23:15:39.490Z,41.87
2018-09-17T23:18:07.611Z,41.84
2018-09-17T23:20:37.116Z,42.02
2018-09-17T23:23:05.363Z,42.46
2018-09-17T23:25:34.205Z,42.27
2018-09-17T23:28:02.284Z,42.61
2018-09-17T23:30:30.362Z,42.44
2018-09-17T23:32:58.743Z,43.10
2018-09-17T23:40:26.222Z,43.48
2018-09-17T23:42:54.443Z,43.32
2018-09-17T23:45:22.619Z,43.41
2018-09-17T23:47:50.782Z,43.92
2018-09-17T23:50:19.092Z,43.92
2018-09-17T23:52:48.954Z,44.19
2018-09-17T23:55:17.171Z,44.08
2018-09-17T23:57:45.535Z,45.25
